Flight Track Log - Related Links

Times and Time Zones

All times are in EDT time to prevent confusion due to time zone crossing. See the FLG3740 flight status page for this flight to view local times or setup timezone preferences in your user account.

Time Position Orientation Groundspeed Altitude Reporting Facility
EDT Latitude Longitude Course Direction KTS MPH feet Rate Location/Type
Sun 06:08:58 PM 42.8606 -85.4081 125° Southeast 222 255 5,200  Level Chicago Center
Sun 06:10:00 PM 42.4941 -85.4318 176° South  Level Estimated
Sun 06:10:00 PM 42.7883 -85.3989 175° South 255 293 8,200  Level Chicago Center
Sun 06:11:00 PM 42.3975 -85.4092 166° South  Level Estimated
Sun 06:11:02 PM 42.6986 -85.3889 175° South 267 307 11,200  Level Chicago Center
Sun 06:12:00 PM 42.3008 -85.3867 173° South  Level Estimated
Sun 06:12:04 PM 42.6056 -85.3789 175° South 328 377 12,400  Level Chicago Center
Sun 06:13:00 PM 42.2075 -85.3797 177° South  Level FlightAware Approximate
Sun 06:13:06 PM 42.5050 -85.3650 174° South 359 413 14,200  Level Chicago Center
Sun 06:14:09 PM 42.4042 -85.3558 176° South 363 418 16,200 1,872 Climbing Chicago Center
Sun 06:15:11 PM 42.3039 -85.3725 187° South 361 415 18,100 1,645 Climbing Chicago Center
Sun 06:16:13 PM 42.2044 -85.3808 184° South 356 410 19,600 1,694 Climbing Chicago Center
Sun 06:17:15 PM 42.0850 -85.3606 173° South 360 414 21,600 1,548 Climbing Chicago Center
Sun 06:18:17 PM 41.9933 -85.3469 174° South 361 415 22,800 677 Climbing Chicago Center
Sun 06:19:19 PM 41.8897 -85.3297 173° South 371 427 23,000 97 Climbing Chicago Center
Sun 06:20:21 PM 41.7775 -85.3119 173° South 395 455 23,000  Level Chicago Center
Sun 06:21:23 PM 41.6656 -85.2928 173° South 397 457 23,000  Level Chicago Center
Sun 06:22:25 PM 41.5289 -85.2711 173° South 399 459 23,000 -484 Level Chicago Center
Sun 06:23:27 PM 41.4181 -85.2547 174° South 398 458 22,000 -755 Descending Chicago Center
Sun 06:25:04 PM 41.2556 -85.2286 173° South 388 447 21,000 -480 Descending Indianapolis Center
Sun 06:25:32 PM 41.2039 -85.2214 174° South 386 444 21,000  Level Chicago Center
Sun 06:26:34 PM 41.0989 -85.2042 173° South 381 438 21,000  Level Chicago Center
Sun 06:27:36 PM 40.9917 -85.1869 173° South 385 443 21,000  Level Chicago Center
Sun 06:28:38 PM 40.8833 -85.1575 168° South 394 453 21,000  Level Chicago Center
Sun 06:29:40 PM 40.7522 -85.1203 168° South 400 460 21,000  Level Chicago Center
Sun 06:30:42 PM 40.6544 -85.0917 167° South 399 459 21,000  Level Chicago Center
Sun 06:31:16 PM 40.5894 -85.0736 168° South 399 459 21,000 -1,000 Level Indianapolis Center
Sun 06:32:24 PM 40.4581 -85.0358 168° South 390 449 19,300 -1,742 Descending Indianapolis Center
Sun 06:33:20 PM 40.3608 -85.0094 168° South 376 433 17,400 -1,828 Descending Indianapolis Center
Sun 06:34:32 PM 40.2472 -84.9778 168° South 347 399 15,400 -1,597 Descending Indianapolis Center
Sun 06:35:24 PM 40.1739 -84.9569 168° South 342 394 14,100 -1,579 Descending Indianapolis Center
Sun 06:36:26 PM 40.0842 -84.9314 168° South 334 384 12,400 -1,645 Descending Indianapolis Center
Sun 06:37:28 PM 39.9892 -84.9050 168° South 314 361 10,700 -1,152 Descending Indianapolis Center
Sun 06:38:31 PM 39.9117 -84.8825 167° South 312 359 10,000 -384 Descending Indianapolis Center
Sun 06:39:33 PM 39.8236 -84.8575 168° South 316 364 9,900 -48 Descending Indianapolis Center
Sun 06:40:35 PM 39.7214 -84.8711 186° South 333 383 9,900 48 Level Indianapolis Center
Sun 06:41:37 PM 39.6417 -84.9194 205° Southwest 328 377 10,000 -484 Climbing Indianapolis Center
Sun 06:42:39 PM 39.5717 -84.9394 192° South 275 316 8,900 -1,306 Descending Indianapolis Center
Sun 06:43:41 PM 39.5089 -84.9158 164° South 240 276 7,300 -1,444 Descending Indianapolis Center
Sun 06:45:21 PM 39.4000 -84.8333 150° Southeast 231 266 5,000 -1,161 Descending Cincinnati TRACON
Sun 06:45:45 PM 39.3933 -84.8281 149° Southeast 234 269 4,900  Descending Indianapolis Center
Sun 06:46:21 PM 39.3667 -84.7833 128° Southeast 226 260 5,000 -438 Climbing Cincinnati TRACON
Sun 06:47:21 PM 39.3167 -84.7333 142° Southeast 225 259 4,200 -950 Descending Cincinnati TRACON
Sun 06:48:21 PM 39.2667 -84.6833 142° Southeast 213 245 3,100 -600 Descending Cincinnati TRACON
Sun 06:49:21 PM 39.2167 -84.6833 180° South 168 193 3,000 -143 Descending Cincinnati TRACON
Sun 06:50:27 PM 39.1667 -84.6833 180° South 155 178 2,800 -524 Descending Cincinnati TRACON
Sun 06:51:27 PM 39.1167 -84.6833 180° South 161 185 1,900 -850 Descending Cincinnati TRACON
Sun 06:52:27 PM 39.0833 -84.6833 180° South 136 157 1,100 -800 Descending Cincinnati TRACON

Login

Don't have an account? Register now (free) for customized features, flight alerts, and more!